sensor_id;sensor_type;location;lat;lon;timestamp;pressure;altitude;pressure_sealevel;temperature;humidity
77517;BME280;68414;53.946;27.634;2023-04-29T00:00:41;99165.859375;;;3.400000;66.503906
77517;BME280;68414;53.946;27.634;2023-04-29T00:01:41;99169.054688;;;3.280000;66.443359
77517;BME280;68414;53.946;27.634;2023-04-29T00:02:42;99170.250000;;;3.220000;67.340820
77517;BME280;68414;53.946;27.634;2023-04-29T00:03:41;99172.085938;;;3.270000;67.027344
77517;BME280;68414;53.946;27.634;2023-04-29T00:04:41;99165.195312;;;3.160000;66.680664
77517;BME280;68414;53.946;27.634;2023-04-29T00:05:41;99166.007812;;;3.160000;67.320312
77517;BME280;68414;53.946;27.634;2023-04-29T00:06:41;99160.453125;;;3.210000;67.231445
77517;BME280;68414;53.946;27.634;2023-04-29T00:07:41;99167.929688;;;3.290000;66.754883
77517;BME280;68414;53.946;27.634;2023-04-29T00:08:41;99157.773438;;;3.350000;66.656250
77517;BME280;68414;53.946;27.634;2023-04-29T00:09:41;99171.390625;;;3.350000;66.890625
77517;BME280;68414;53.946;27.634;2023-04-29T00:10:41;99167.546875;;;3.360000;66.359375
77517;BME280;68414;53.946;27.634;2023-04-29T00:11:41;99167.656250;;;3.310000;66.478516
77517;BME280;68414;53.946;27.634;2023-04-29T00:12:41;99168.468750;;;3.310000;66.682617
77517;BME280;68414;53.946;27.634;2023-04-29T00:13:41;99169.250000;;;3.320000;67.185547
77517;BME280;68414;53.946;27.634;2023-04-29T00:14:41;99163.609375;;;3.280000;66.603516
77517;BME280;68414;53.946;27.634;2023-04-29T00:15:41;99167.343750;;;3.320000;66.248047
77517;BME280;68414;53.946;27.634;2023-04-29T00:16:41;99171.890625;;;3.370000;65.924805
77517;BME280;68414;53.946;27.634;2023-04-29T00:17:41;99159.375000;;;3.360000;65.869141
77517;BME280;68414;53.946;27.634;2023-04-29T00:18:41;99164.703125;;;3.270000;66.954102
77517;BME280;68414;53.946;27.634;2023-04-29T00:19:41;99166.328125;;;3.280000;66.859375
77517;BME280;68414;53.946;27.634;2023-04-29T00:20:41;99170.656250;;;3.290000;66.349609
77517;BME280;68414;53.946;27.634;2023-04-29T00:21:41;99170.882812;;;3.330000;66.098633
77517;BME280;68414;53.946;27.634;2023-04-29T00:22:41;99169.640625;;;3.250000;66.300781
77517;BME280;68414;53.946;27.634;2023-04-29T00:23:43;99163.562500;;;3.150000;66.827148
77517;BME280;68414;53.946;27.634;2023-04-29T00:24:41;99165.703125;;;3.180000;67.099609
77517;BME280;68414;53.946;27.634;2023-04-29T00:25:41;99168.343750;;;3.230000;66.808594
77517;BME280;68414;53.946;27.634;2023-04-29T00:26:41;99172.359375;;;3.250000;66.237305
77517;BME280;68414;53.946;27.634;2023-04-29T00:27:41;99166.015625;;;3.300000;65.988281
77517;BME280;68414;53.946;27.634;2023-04-29T00:28:41;99165.625000;;;3.230000;66.360352
77517;BME280;68414;53.946;27.634;2023-04-29T00:29:41;99171.218750;;;3.130000;67.239258
77517;BME280;68414;53.946;27.634;2023-04-29T00:30:41;99163.062500;;;3.130000;67.026367
77517;BME280;68414;53.946;27.634;2023-04-29T00:31:41;99162.164062;;;3.170000;66.693359
77517;BME280;68414;53.946;27.634;2023-04-29T00:32:41;99175.703125;;;3.220000;66.626953
77517;BME280;68414;53.946;27.634;2023-04-29T00:33:41;99170.140625;;;3.270000;66.368164
77517;BME280;68414;53.946;27.634;2023-04-29T00:34:41;99172.281250;;;3.300000;66.073242
77517;BME280;68414;53.946;27.634;2023-04-29T00:35:41;99168.750000;;;3.300000;66.190430
77517;BME280;68414;53.946;27.634;2023-04-29T00:36:42;99168.750000;;;3.300000;66.958008
77517;BME280;68414;53.946;27.634;2023-04-29T00:37:41;99167.656250;;;3.310000;66.372070
77517;BME280;68414;53.946;27.634;2023-04-29T00:38:41;99156.453125;;;3.320000;66.141602
77517;BME280;68414;53.946;27.634;2023-04-29T00:39:41;99157.773438;;;3.350000;66.059570
77517;BME280;68414;53.946;27.634;2023-04-29T00:40:41;99159.375000;;;3.360000;65.719727
77517;BME280;68414;53.946;27.634;2023-04-29T00:41:41;99164.820312;;;3.360000;66.177734
77517;BME280;68414;53.946;27.634;2023-04-29T00:42:41;99161.703125;;;3.290000;66.518555
77517;BME280;68414;53.946;27.634;2023-04-29T00:43:41;99167.046875;;;3.010000;66.787109
77517;BME280;68414;53.946;27.634;2023-04-29T00:44:41;99169.304688;;;2.810000;67.180664
77517;BME280;68414;53.946;27.634;2023-04-29T00:45:41;99167.328125;;;2.680000;67.765625
77517;BME280;68414;53.946;27.634;2023-04-29T00:46:41;99169.828125;;;2.460000;68.348633
77517;BME280;68414;53.946;27.634;2023-04-29T00:47:41;99166.140625;;;2.370000;68.993164
77517;BME280;68414;53.946;27.634;2023-04-29T00:48:41;99173.414062;;;2.220000;69.512695
77517;BME280;68414;53.946;27.634;2023-04-29T00:49:41;99167.875000;;;2.090000;69.999023
77517;BME280;68414;53.946;27.634;2023-04-29T00:50:41;99170.437500;;;2.000000;70.717773
77517;BME280;68414;53.946;27.634;2023-04-29T00:51:41;99169.210938;;;2.110000;70.938477
77517;BME280;68414;53.946;27.634;2023-04-29T00:52:41;99173.109375;;;2.240000;70.310547
77517;BME280;68414;53.946;27.634;2023-04-29T00:53:41;99167.625000;;;2.290000;69.831055
77517;BME280;68414;53.946;27.634;2023-04-29T00:54:41;99171.671875;;;2.320000;69.590820
77517;BME280;68414;53.946;27.634;2023-04-29T00:55:42;99169.671875;;;2.370000;70.066406
77517;BME280;68414;53.946;27.634;2023-04-29T00:56:41;99164.382812;;;2.460000;69.443359
77517;BME280;68414;53.946;27.634;2023-04-29T00:57:41;99168.062500;;;2.550000;68.840820
77517;BME280;68414;53.946;27.634;2023-04-29T00:58:42;99171.664062;;;2.500000;69.026367
77517;BME280;68414;53.946;27.634;2023-04-29T00:59:43;99168.218750;;;2.450000;69.238281
77517;BME280;68414;53.946;27.634;2023-04-29T01:00:41;99160.843750;;;2.450000;69.250977
77517;BME280;68414;53.946;27.634;2023-04-29T01:01:41;99164.382812;;;2.460000;69.327148
77517;BME280;68414;53.946;27.634;2023-04-29T01:02:41;99169.156250;;;2.540000;68.892578
77517;BME280;68414;53.946;27.634;2023-04-29T01:03:42;99163.078125;;;2.620000;68.693359
77517;BME280;68414;53.946;27.634;2023-04-29T01:04:41;99166.203125;;;2.690000;68.385742
77517;BME280;68414;53.946;27.634;2023-04-29T01:05:41;99174.367188;;;2.690000;68.651367
77517;BME280;68414;53.946;27.634;2023-04-29T01:07:47;99175.859375;;;2.610000;68.946289
77517;BME280;68414;53.946;27.634;2023-04-29T01:11:46;99168.375000;;;2.530000;69.710938
77517;BME280;68414;53.946;27.634;2023-04-29T01:12:44;99171.601562;;;2.550000;69.224609
77517;BME280;68414;53.946;27.634;2023-04-29T01:13:42;99166.304688;;;2.640000;68.887695
77517;BME280;68414;53.946;27.634;2023-04-29T01:14:42;99168.351562;;;2.720000;68.719727
77517;BME280;68414;53.946;27.634;2023-04-29T01:16:03;99170.492188;;;2.750000;68.203125
77517;BME280;68414;53.946;27.634;2023-04-29T01:20:41;99172.484375;;;2.510000;69.419922
77517;BME280;68414;53.946;27.634;2023-04-29T01:22:41;99169.515625;;;2.470000;69.647461
77517;BME280;68414;53.946;27.634;2023-04-29T01:23:41;99174.023438;;;2.380000;70.026367
77517;BME280;68414;53.946;27.634;2023-04-29T01:24:41;99172.546875;;;2.270000;70.412109
77517;BME280;68414;53.946;27.634;2023-04-29T01:25:41;99172.453125;;;2.320000;70.622070
77517;BME280;68414;53.946;27.634;2023-04-29T01:26:43;99173.054688;;;2.290000;71.116211
77517;BME280;68414;53.946;27.634;2023-04-29T01:27:45;99173.578125;;;2.310000;70.694336
77517;BME280;68414;53.946;27.634;2023-04-29T01:34:43;99184.562500;;;2.210000;70.475586
77517;BME280;68414;53.946;27.634;2023-04-29T01:41:42;99186.843750;;;2.140000;71.440430
77517;BME280;68414;53.946;27.634;2023-04-29T01:42:43;99186.250000;;;2.170000;71.032227
77517;BME280;68414;53.946;27.634;2023-04-29T01:43:41;99189.421875;;;2.240000;70.798828
77517;BME280;68414;53.946;27.634;2023-04-29T01:44:41;99190.390625;;;2.330000;
77517;BME280;68414;53.946;27.634;2023-04-29T01:45:41;99191.937500;;;2.390000;70.017578
77517;BME280;68414;53.946;27.634;2023-04-29T01:46:42;99188.046875;;;2.450000;69.995117
77517;BME280;68414;53.946;27.634;2023-04-29T01:47:41;99191.515625;;;2.510000;69.366211
77517;BME280;68414;53.946;27.634;2023-04-29T01:48:41;99198.281250;;;2.530000;69.391602
77517;BME280;68414;53.946;27.634;2023-04-29T01:49:41;99195.328125;;;2.500000;69.620117
77517;BME280;68414;53.946;27.634;2023-04-29T01:50:41;99194.750000;;;2.530000;69.699219
77517;BME280;68414;53.946;27.634;2023-04-29T01:51:41;99194.453125;;;2.540000;69.552734
77517;BME280;68414;53.946;27.634;2023-04-29T01:52:41;99195.265625;;;2.550000;69.510742
77517;BME280;68414;53.946;27.634;2023-04-29T01:53:41;99200.398438;;;2.560000;69.311523
77517;BME280;68414;53.946;27.634;2023-04-29T01:54:41;99194.960938;;;2.560000;69.481445
77517;BME280;68414;53.946;27.634;2023-04-29T01:55:41;99196.140625;;;2.500000;70.195312
77517;BME280;68414;53.946;27.634;2023-04-29T01:56:41;99190.398438;;;2.520000;69.516602
77517;BME280;68414;53.946;27.634;2023-04-29T01:57:41;99191.421875;;;2.560000;69.533203
77517;BME280;68414;53.946;27.634;2023-04-29T01:58:41;99203.781250;;;2.480000;69.735352
77517;BME280;68414;53.946;27.634;2023-04-29T01:59:41;99199.218750;;;2.440000;69.908203
77517;BME280;68414;53.946;27.634;2023-04-29T02:00:41;99195.781250;;;2.380000;70.239258
77517;BME280;68414;53.946;27.634;2023-04-29T02:01:41;99199.062500;;;2.350000;70.286133
77517;BME280;68414;53.946;27.634;2023-04-29T02:02:41;99199.640625;;;2.320000;70.557617
77517;BME280;68414;53.946;27.634;2023-04-29T02:03:41;99200.242188;;;2.290000;70.415039
77517;BME280;68414;53.946;27.634;2023-04-29T02:04:41;99205.078125;;;2.320000;70.356445
77517;BME280;68414;53.946;27.634;2023-04-29T02:05:41;99207.578125;;;2.280000;70.275391
77517;BME280;68414;53.946;27.634;2023-04-29T02:06:41;99203.828125;;;2.240000;70.343750
77517;BME280;68414;53.946;27.634;2023-04-29T02:07:41;99206.031250;;;2.220000;70.776367
77517;BME280;68414;53.946;27.634;2023-04-29T02:08:41;99202.445312;;;2.270000;71.176758
77517;BME280;68414;53.946;27.634;2023-04-29T02:09:41;99194.203125;;;2.320000;70.749023
77517;BME280;68414;53.946;27.634;2023-04-29T02:10:41;99200.968750;;;2.350000;70.871094
77517;BME280;68414;53.946;27.634;2023-04-29T02:11:41;99200.312500;;;2.430000;70.458008
77517;BME280;68414;53.946;27.634;2023-04-29T02:12:41;99198.710938;;;2.420000;70.392578
77517;BME280;68414;53.946;27.634;2023-04-29T02:13:41;99203.843750;;;2.430000;70.129883
77517;BME280;68414;53.946;27.634;2023-04-29T02:14:41;99204.718750;;;2.390000;70.558594
77517;BME280;68414;53.946;27.634;2023-04-29T02:15:41;99201.273438;;;2.330000;70.729492
77517;BME280;68414;53.946;27.634;2023-04-29T02:17:41;99198.390625;;;2.240000;71.151367
77517;BME280;68414;53.946;27.634;2023-04-29T02:18:41;99201.984375;;;2.200000;71.398438
77517;BME280;68414;53.946;27.634;2023-04-29T02:19:41;99199.265625;;;2.200000;71.589844
77517;BME280;68414;53.946;27.634;2023-04-29T02:20:41;99199.109375;;;2.110000;71.862305
77517;BME280;68414;53.946;27.634;2023-04-29T02:21:41;99195.054688;;;2.090000;71.995117
77517;BME280;68414;53.946;27.634;2023-04-29T02:22:41;99199.406250;;;2.100000;72.028320
77517;BME280;68414;53.946;27.634;2023-04-29T02:23:41;99192.859375;;;2.110000;72.083008
77517;BME280;68414;53.946;27.634;2023-04-29T02:24:41;99189.484375;;;2.190000;71.502930
77517;BME280;68414;53.946;27.634;2023-04-29T02:25:41;99198.968750;;;2.210000;71.507812
77517;BME280;68414;53.946;27.634;2023-04-29T02:26:41;99198.390625;;;2.240000;71.236328
77517;BME280;68414;53.946;27.634;2023-04-29T02:27:41;99193.171875;;;2.280000;71.124023
77517;BME280;68414;53.946;27.634;2023-04-29T02:28:41;99200.242188;;;2.290000;71.041992
77517;BME280;68414;53.946;27.634;2023-04-29T02:29:41;99199.484375;;;2.230000;71.319336
77517;BME280;68414;53.946;27.634;2023-04-29T02:30:41;99197.882812;;;2.220000;71.318359
77517;BME280;68414;53.946;27.634;2023-04-29T02:31:41;99202.796875;;;2.200000;71.335938
77517;BME280;68414;53.946;27.634;2023-04-29T02:32:41;99197.937500;;;2.170000;71.670898
77517;BME280;68414;53.946;27.634;2023-04-29T02:33:41;99202.554688;;;2.170000;71.404297
77517;BME280;68414;53.946;27.634;2023-04-29T02:34:41;99202.500000;;;2.220000;71.316406
77517;BME280;68414;53.946;27.634;2023-04-29T02:35:41;99200.812500;;;2.260000;71.078125
77517;BME280;68414;53.946;27.634;2023-04-29T02:36:41;99203.156250;;;2.140000;71.344727
77517;BME280;68414;53.946;27.634;2023-04-29T02:37:41;99202.906250;;;2.100000;71.807617
77517;BME280;68414;53.946;27.634;2023-04-29T02:38:41;99203.937500;;;2.140000;71.717773
77517;BME280;68414;53.946;27.634;2023-04-29T02:39:41;99199.757812;;;2.030000;72.325195
77517;BME280;68414;53.946;27.634;2023-04-29T02:40:45;99199.109375;;;2.110000;71.723633
77517;BME280;68414;53.946;27.634;2023-04-29T02:41:41;99204.328125;;;2.080000;71.611328
77517;BME280;68414;53.946;27.634;2023-04-29T02:42:41;99204.593750;;;2.060000;71.597656
77517;BME280;68414;53.946;27.634;2023-04-29T02:43:41;99203.507812;;;2.070000;72.025391
77517;BME280;68414;53.946;27.634;2023-04-29T02:44:41;99204.843750;;;2.100000;71.975586
77517;BME280;68414;53.946;27.634;2023-04-29T02:45:41;99208.992188;;;2.020000;72.429688
77517;BME280;68414;53.946;27.634;2023-04-29T02:46:41;99206.968750;;;1.890000;72.875000
77517;BME280;68414;53.946;27.634;2023-04-29T02:47:41;99213.046875;;;1.810000;72.838867
77517;BME280;68414;53.946;27.634;2023-04-29T02:48:41;99203.390625;;;1.700000;73.415039
77517;BME280;68414;53.946;27.634;2023-04-29T02:49:41;99203.609375;;;1.740000;73.854492
77517;BME280;68414;53.946;27.634;2023-04-29T02:50:41;99212.750000;;;1.830000;73.584961
77517;BME280;68414;53.946;27.634;2023-04-29T02:51:41;99211.593750;;;1.890000;73.224609
77517;BME280;68414;53.946;27.634;2023-04-29T02:52:41;99212.062500;;;1.960000;72.907227
77517;BME280;68414;53.946;27.634;2023-04-29T02:53:41;99209.640625;;;1.940000;72.693359
77517;BME280;68414;53.946;27.634;2023-04-29T02:54:41;99216.625000;;;2.000000;72.893555
77517;BME280;68414;53.946;27.634;2023-04-29T02:55:41;99219.640625;;;1.990000;72.690430
77517;BME280;68414;53.946;27.634;2023-04-29T02:56:41;99214.773438;;;1.960000;73.023438
77517;BME280;68414;53.946;27.634;2023-04-29T02:57:41;99209.046875;;;1.740000;72.762695
77517;BME280;68414;53.946;27.634;2023-04-29T02:58:41;99214.070312;;;1.620000;73.591797
77517;BME280;68414;53.946;27.634;2023-04-29T02:59:41;99218.984375;;;1.600000;73.639648
77517;BME280;68414;53.946;27.634;2023-04-29T03:00:41;99221.515625;;;1.510000;74.028320
77517;BME280;68414;53.946;27.634;2023-04-29T03:01:41;99224.703125;;;1.580000;74.633789
77517;BME280;68414;53.946;27.634;2023-04-29T03:02:41;99222.101562;;;1.720000;74.116211
77517;BME280;68414;53.946;27.634;2023-04-29T03:03:41;99226.328125;;;1.830000;73.541992
77517;BME280;68414;53.946;27.634;2023-04-29T03:04:41;99221.242188;;;1.760000;73.721680
77517;BME280;68414;53.946;27.634;2023-04-29T03:05:41;99222.875000;;;1.770000;73.660156
77517;BME280;68414;53.946;27.634;2023-04-29T03:06:41;99225.296875;;;1.790000;73.852539
77517;BME280;68414;53.946;27.634;2023-04-29T03:07:41;99228.312500;;;1.770000;73.712891
77517;BME280;68414;53.946;27.634;2023-04-29T03:08:41;99221.015625;;;1.730000;74.054688
77517;BME280;68414;53.946;27.634;2023-04-29T03:09:41;99221.718750;;;1.830000;73.722656
77517;BME280;68414;53.946;27.634;2023-04-29T03:10:43;99224.265625;;;1.980000;73.346680
77517;BME280;68414;53.946;27.634;2023-04-29T03:11:41;99227.156250;;;2.070000;72.650391
77517;BME280;68414;53.946;27.634;2023-04-29T03:12:41;99229.875000;;;2.070000;72.278320
77517;BME280;68414;53.946;27.634;2023-04-29T03:13:41;99231.250000;;;2.040000;72.708984
77517;BME280;68414;53.946;27.634;2023-04-29T03:14:41;99221.765625;;;2.020000;73.033203
77517;BME280;68414;53.946;27.634;2023-04-29T03:15:41;99223.867188;;;2.100000;72.952148
77517;BME280;68414;53.946;27.634;2023-04-29T03:16:41;99234.304688;;;2.210000;72.484375
77517;BME280;68414;53.946;27.634;2023-04-29T03:17:41;99234.718750;;;2.340000;72.016602
77517;BME280;68414;53.946;27.634;2023-04-29T03:18:45;99224.781250;;;2.430000;71.414062
77517;BME280;68414;53.946;27.634;2023-04-29T03:19:41;99228.781250;;;2.500000;71.173828
77517;BME280;68414;53.946;27.634;2023-04-29T03:20:41;99227.593750;;;2.560000;71.076172
77517;BME280;68414;53.946;27.634;2023-04-29T03:21:41;99235.703125;;;2.610000;71.094727
77517;BME280;68414;53.946;27.634;2023-04-29T03:22:41;99233.187500;;;2.650000;71.004883
77517;BME280;68414;53.946;27.634;2023-04-29T03:23:41;99232.101562;;;2.660000;70.932617
77517;BME280;68414;53.946;27.634;2023-04-29T03:24:41;99226.875000;;;2.690000;70.799805
77517;BME280;68414;53.946;27.634;2023-04-29T03:25:41;99231.218750;;;2.700000;70.461914
77517;BME280;68414;53.946;27.634;2023-04-29T03:26:41;99229.531250;;;2.740000;70.509766
77517;BME280;68414;53.946;27.634;2023-04-29T03:27:41;99233.281250;;;2.780000;70.730469
77517;BME280;68414;53.946;27.634;2023-04-29T03:28:41;99238.921875;;;2.820000;70.607422
77517;BME280;68414;53.946;27.634;2023-04-29T03:29:41;99233.718750;;;2.850000;70.434570
77517;BME280;68414;53.946;27.634;2023-04-29T03:30:41;99237.234375;;;2.860000;70.295898
77517;BME280;68414;53.946;27.634;2023-04-29T03:31:41;99242.156250;;;2.840000;70.461914
77517;BME280;68414;53.946;27.634;2023-04-29T03:32:41;99235.625000;;;2.850000;70.336914
77517;BME280;68414;53.946;27.634;2023-04-29T03:33:41;99234.812500;;;2.840000;70.867188
77517;BME280;68414;53.946;27.634;2023-04-29T03:34:41;99237.898438;;;2.780000;71.122070
77517;BME280;68414;53.946;27.634;2023-04-29T03:35:41;99239.015625;;;2.770000;70.993164
77517;BME280;68414;53.946;27.634;2023-04-29T03:36:41;99240.859375;;;2.810000;71.128906
77517;BME280;68414;53.946;27.634;2023-04-29T03:37:41;99240.187500;;;2.890000;70.887695
77517;BME280;68414;53.946;27.634;2023-04-29T03:38:41;99241.515625;;;2.920000;70.421875
77517;BME280;68414;53.946;27.634;2023-04-29T03:39:41;99238.140625;;;2.810000;70.979492
77517;BME280;68414;53.946;27.634;2023-04-29T03:40:41;99238.656250;;;2.830000;71.142578
77517;BME280;68414;53.946;27.634;2023-04-29T03:41:41;99233.937500;;;2.890000;70.875000
77517;BME280;68414;53.946;27.634;2023-04-29T03:42:41;99239.890625;;;2.910000;70.718750
77517;BME280;68414;53.946;27.634;2023-04-29T03:43:41;99243.484375;;;2.860000;71.167969
77517;BME280;68414;53.946;27.634;2023-04-29T03:44:41;99239.742188;;;2.820000;70.822266
77517;BME280;68414;53.946;27.634;2023-04-29T03:45:41;99242.468750;;;2.820000;71.023438
77517;BME280;68414;53.946;27.634;2023-04-29T03:46:41;99238.046875;;;2.860000;71.604492
77517;BME280;68414;53.946;27.634;2023-04-29T03:47:41;99243.125000;;;2.930000;71.221680
77517;BME280;68414;53.946;27.634;2023-04-29T03:48:41;99243.703125;;;3.080000;71.609375
77517;BME280;68414;53.946;27.634;2023-04-29T03:49:41;99236.562500;;;3.130000;71.381836
77517;BME280;68414;53.946;27.634;2023-04-29T03:50:41;99236.796875;;;3.160000;71.909180
77517;BME280;68414;53.946;27.634;2023-04-29T03:51:41;99240.664062;;;3.290000;71.386719
77517;BME280;68414;53.946;27.634;2023-04-29T03:52:41;99238.703125;;;3.480000;71.014648
77517;BME280;68414;53.946;27.634;2023-04-29T03:53:41;99237.500000;;;3.540000;70.128906
77517;BME280;68414;53.946;27.634;2023-04-29T03:54:41;99239.375000;;;3.720000;70.074219
77517;BME280;68414;53.946;27.634;2023-04-29T03:55:41;99240.101562;;;3.910000;69.380859
77517;BME280;68414;53.946;27.634;2023-04-29T03:56:41;99240.914062;;;3.920000;68.484375
77517;BME280;68414;53.946;27.634;2023-04-29T03:57:41;99241.406250;;;4.070000;68.328125
77517;BME280;68414;53.946;27.634;2023-04-29T03:58:41;99240.000000;;;4.100000;68.268555
77517;BME280;68414;53.946;27.634;2023-04-29T03:59:41;99243.742188;;;4.270000;67.537109
77517;BME280;68414;53.946;27.634;2023-04-29T04:00:41;99238.875000;;;4.510000;67.223633
77517;BME280;68414;53.946;27.634;2023-04-29T04:01:42;99244.734375;;;4.580000;66.742188
77517;BME280;68414;53.946;27.634;2023-04-29T04:02:41;99254.835938;;;4.580000;66.804688
77517;BME280;68414;53.946;27.634;2023-04-29T04:03:41;99244.687500;;;4.720000;66.057617
77517;BME280;68414;53.946;27.634;2023-04-29T04:04:41;99252.093750;;;4.720000;66.313477
77517;BME280;68414;53.946;27.634;2023-04-29T04:05:41;99246.421875;;;4.680000;66.735352
77517;BME280;68414;53.946;27.634;2023-04-29T04:06:41;99246.500000;;;4.770000;67.015625
77517;BME280;68414;53.946;27.634;2023-04-29T04:07:41;99245.062500;;;4.930000;66.345703
77517;BME280;68414;53.946;27.634;2023-04-29T04:08:41;99245.875000;;;4.930000;65.704102
77517;BME280;68414;53.946;27.634;2023-04-29T04:09:41;99248.968750;;;5.000000;65.790039
77517;BME280;68414;53.946;27.634;2023-04-29T04:10:41;99247.265625;;;5.040000;66.074219
77517;BME280;68414;53.946;27.634;2023-04-29T04:11:41;99245.523438;;;5.080000;66.123047
77517;BME280;68414;53.946;27.634;2023-04-29T04:12:41;99247.398438;;;5.210000;66.166016
77517;BME280;68414;53.946;27.634;2023-04-29T04:13:41;99244.296875;;;5.360000;65.479492
77517;BME280;68414;53.946;27.634;2023-04-29T04:14:41;99238.250000;;;5.480000;65.476562
77517;BME280;68414;53.946;27.634;2023-04-29T04:15:48;99253.546875;;;5.490000;64.341797
77517;BME280;68414;53.946;27.634;2023-04-29T04:16:41;99246.218750;;;5.580000;64.656250
77517;BME280;68414;53.946;27.634;2023-04-29T04:17:41;99248.507812;;;5.650000;64.612305
77517;BME280;68414;53.946;27.634;2023-04-29T04:18:41;99253.968750;;;5.650000;65.094727
77517;BME280;68414;53.946;27.634;2023-04-29T04:19:41;99243.828125;;;5.650000;64.515625
77517;BME280;68414;53.946;27.634;2023-04-29T04:20:41;99250.648438;;;5.760000;64.489258
77517;BME280;68414;53.946;27.634;2023-04-29T04:21:41;99251.218750;;;5.870000;65.053711
77517;BME280;68414;53.946;27.634;2023-04-29T04:22:41;99251.093750;;;5.920000;65.071289
77517;BME280;68414;53.946;27.634;2023-04-29T04:23:41;99256.687500;;;5.870000;65.042969
77517;BME280;68414;53.946;27.634;2023-04-29T04:24:41;99251.906250;;;5.920000;65.264648
77517;BME280;68414;53.946;27.634;2023-04-29T04:26:41;99249.046875;;;5.970000;65.047852
77517;BME280;68414;53.946;27.634;2023-04-29T04:27:41;99248.843750;;;5.940000;65.438477
77517;BME280;68414;53.946;27.634;2023-04-29T04:28:41;99255.335938;;;6.060000;64.383789
77517;BME280;68414;53.946;27.634;2023-04-29T04:29:41;99249.414062;;;6.130000;64.534180
77517;BME280;68414;53.946;27.634;2023-04-29T04:30:41;99257.656250;;;6.220000;65.073242
77517;BME280;68414;53.946;27.634;2023-04-29T04:31:41;99254.687500;;;6.400000;64.112305
77517;BME280;68414;53.946;27.634;2023-04-29T04:32:41;99255.015625;;;6.390000;63.766602
77517;BME280;68414;53.946;27.634;2023-04-29T04:33:41;99248.609375;;;6.520000;63.731445
77517;BME280;68414;53.946;27.634;2023-04-29T04:34:41;99254.109375;;;6.600000;63.550781
77517;BME280;68414;53.946;27.634;2023-04-29T04:35:41;99258.460938;;;6.700000;62.972656
77517;BME280;68414;53.946;27.634;2023-04-29T04:36:41;99260.085938;;;6.710000;63.254883
77517;BME280;68414;53.946;27.634;2023-04-29T04:37:41;99252.500000;;;6.680000;62.916016
77517;BME280;68414;53.946;27.634;2023-04-29T04:38:41;99251.070312;;;6.790000;63.072266
77517;BME280;68414;53.946;27.634;2023-04-29T04:39:41;99260.406250;;;6.780000;63.694336
77517;BME280;68414;53.946;27.634;2023-04-29T04:40:41;99258.968750;;;6.890000;63.721680
77517;BME280;68414;53.946;27.634;2023-04-29T04:41:41;99253.023438;;;7.040000;63.485352
77517;BME280;68414;53.946;27.634;2023-04-29T04:42:41;99260.468750;;;7.120000;63.487305
77517;BME280;68414;53.946;27.634;2023-04-29T04:43:41;99262.226562;;;7.510000;62.186523
77517;BME280;68414;53.946;27.634;2023-04-29T04:44:41;99267.523438;;;7.560000;59.615234
77517;BME280;68414;53.946;27.634;2023-04-29T04:45:41;99263.828125;;;7.520000;59.975586
77517;BME280;68414;53.946;27.634;2023-04-29T04:46:41;99262.046875;;;7.470000;59.225586
77517;BME280;68414;53.946;27.634;2023-04-29T04:47:41;99261.070312;;;7.600000;60.808594
77517;BME280;68414;53.946;27.634;2023-04-29T04:48:41;99260.273438;;;7.690000;58.412109
77517;BME280;68414;53.946;27.634;2023-04-29T04:49:41;99263.296875;;;7.760000;58.076172
77517;BME280;68414;53.946;27.634;2023-04-29T04:50:41;99266.898438;;;8.220000;59.090820
77517;BME280;68414;53.946;27.634;2023-04-29T04:52:41;99270.179688;;;8.830000;58.577148
77517;BME280;68414;53.946;27.634;2023-04-29T04:53:41;99267.250000;;;8.880000;57.847656
77517;BME280;68414;53.946;27.634;2023-04-29T04:54:43;99265.382812;;;9.000000;57.138672
77517;BME280;68414;53.946;27.634;2023-04-29T04:55:41;99267.937500;;;9.260000;54.429688
77517;BME280;68414;53.946;27.634;2023-04-29T04:56:41;99267.718750;;;9.520000;54.591797
77517;BME280;68414;53.946;27.634;2023-04-29T04:57:41;99268.914062;;;9.630000;54.073242